• Join FlightAware (Why Join?)
  • Login
  • US Flag 
Rudolph Flight #1: Arrived! 
06:57AM EST


 

Airport Tracker/Info


-or-


 

Live Flight TrackerFlight Track Log ✈ G52617 ✈ 16-Sep-2013 ✈ ZUGY / KWE - ZGWZ / WUZ

Flight Track Log - Related Links

Times and Time Zones

All times are in EDT time to prevent confusion due to time zone crossing. See the G52617 flight status page for this flight to view local times or setup timezone preferences in your user account.

Time Position Orientation Groundspeed Altitude Reporting Facility
EDT Latitude Longitude Course Direction KTS MPH feet Rate Location/Type
07:49PM 26.1497 107.3854 126° Southeast  Level Estimated
07:50PM 26.1064 107.4501 127° Southeast  Level Estimated
07:51PM 26.0630 107.5148 127° Southeast  Level Estimated
07:52PM 26.0196 107.5795 127° Southeast  Level Estimated
07:53PM 25.9762 107.6440 127° Southeast  Level Estimated
07:54PM 25.9328 107.7086 127° Southeast  Level Estimated
07:55PM 25.8893 107.7730 127° Southeast  Level Estimated
07:56PM 25.8458 107.8375 127° Southeast  Level Estimated
07:57PM 25.8022 107.9019 127° Southeast  Level Estimated
07:58PM 25.7586 107.9662 127° Southeast  Level Estimated
07:59PM 25.7150 108.0305 127° Southeast  Level Estimated
08:00PM 25.6714 108.0948 127° Southeast  Level Estimated
08:01PM 25.6278 108.1590 127° Southeast  Level Estimated
08:02PM 25.5841 108.2231 127° Southeast  Level Estimated
08:03PM 25.5404 108.2872 127° Southeast  Level Estimated
08:04PM 25.4966 108.3513 127° Southeast  Level Estimated
08:05PM 25.4529 108.4153 127° Southeast  Level Estimated
08:06PM 25.4091 108.4793 127° Southeast  Level Estimated
08:07PM 25.3652 108.5432 127° Southeast  Level Estimated
08:08PM 25.3214 108.6071 127° Southeast  Level Estimated
08:09PM 25.2775 108.6709 127° Southeast  Level Estimated
08:10PM 25.2336 108.7347 127° Southeast  Level Estimated
08:11PM 25.1897 108.7984 127° Southeast  Level Estimated
08:12PM 25.1457 108.8621 127° Southeast  Level Estimated
08:13PM 25.1017 108.9258 127° Southeast  Level Estimated
08:14PM 25.0577 108.9894 127° Southeast  Level Estimated
08:15PM 25.0137 109.0529 127° Southeast  Level Estimated
08:16PM 24.9696 109.1164 127° Southeast  Level Estimated
08:17PM 24.9255 109.1799 127° Southeast  Level Estimated
08:18PM 24.8814 109.2433 127° Southeast  Level Estimated
08:19PM 24.8372 109.3067 128° Southeast  Level Estimated
08:20PM 24.7931 109.3700 128° Southeast  Level Estimated
08:21PM 24.7488 109.4333 128° Southeast  Level Estimated
08:22PM 24.7046 109.4966 128° Southeast  Level Estimated
08:23PM 24.6604 109.5597 128° Southeast  Level Estimated
08:24PM 24.6161 109.6229 128° Southeast  Level Estimated
08:25PM 24.5718 109.6860 128° Southeast  Level Estimated
08:26PM 24.5275 109.7490 128° Southeast  Level Estimated
08:27PM 24.4831 109.8121 128° Southeast  Level Estimated
08:28PM 24.4387 109.8750 128° Southeast  Level Estimated
08:29PM 24.3943 109.9380 128° Southeast  Level Estimated
08:30PM 24.3498 110.0008 128° Southeast  Level Estimated
08:31PM 24.3054 110.0637 128° Southeast  Level Estimated
08:32PM 24.2609 110.1265 128° Southeast  Level Estimated
08:33PM 24.2164 110.1892 128° Southeast  Level Estimated
08:34PM 24.1718 110.2519 128° Southeast  Level Estimated
08:35PM 24.1273 110.3146 128° Southeast  Level Estimated
08:36PM 24.0827 110.3772 128° Southeast  Level Estimated
08:37PM 24.0381 110.4398 128° Southeast  Level Estimated
08:38PM 23.9934 110.5023 128° Southeast  Level Estimated
08:39PM 23.9487 110.5648 128° Southeast  Level Estimated
08:40PM 23.9041 110.6272 128° Southeast  Level Estimated
08:41PM 23.8593 110.6896 128° Southeast  Level Estimated
08:42PM 23.8146 110.7520 128° Southeast  Level Estimated
08:43PM 23.7698 110.8143 128° Southeast  Level Estimated
08:44PM 23.7250 110.8766 128° Southeast  Level Estimated
08:45PM 23.6802 110.9388 128° Southeast  Level Estimated
08:46PM 23.6354 111.0010 128° Southeast  Level Estimated
08:47PM 23.5905 111.0631 128° Southeast  Level Estimated
08:48PM 23.5456 111.1253 128° Southeast  Level Estimated
08:49PM 23.5007 111.1873 128° Southeast  Level Estimated
08:50PM 23.4567 111.2481 128° Southeast  Level Estimated
08:51PM 23.4567 111.2481 231° Southwest  Level Estimated